Airfield :
LOGIN :

Register | Disclaimer

   EN    FR    IT 

 










Legend :    VFR   Marginal VFR   IFR   Intensive IFR   Very Intensive IFR
Visi :
Ceiling :
>= 8 km
>= 3000ft
5 to 8 km
1000 to 3000 ft
1500m to 5 km
500 to 1000 ft
800 to 1500m
200 to 500 ft
< 800m
< 200 ft
Symbols :   Thunderstorms  Fog  Heavy snow  Heavy precipitations  Wind > 20 kt
SIGMETs :     Misc.  Thunderstorms  Icing  Turbulence  Mountain Waves  Volcanic Ashes







- Airport Elevation : 17 ft
- IATA code : GRQ


EHGG - Groningen Eelde

CURRENT METAR :
  • 211625Z AUTO 18004KT 160V230 9999 NSC 02/00 Q1014 NOSIG

EXPIRED METARs :
  • 211555Z AUTO 17004KT 150V240 9999 NSC 03/01 Q1014 NOSIG
  • 211525Z AUTO 21005KT 9999 NSC 02/00 Q1014 NOSIG
  • 211455Z AUTO 22006KT 9999 NSC 02/01 Q1014 NOSIG
  • 211425Z AUTO 24004KT 9999 NSC 05/02 Q1014 NOSIG
  • 211355Z AUTO 25005KT 9999 FEW019 SCT022 BKN026 05/02 Q1014 NOSIG
  • 211325Z AUTO 25006KT 9999 FEW016 05/02 Q1014 NOSIG

TAF COR TAF EHGG
Valid from the 21 at 12:00 until the 22 at 18:00 UTC


211542Z 2112/2218 26007KT 9999 SCT020
BECMG 2122/2201 14012KT 3000 SNRA BKN004
PROB40
TEMPO 2200/2205 0800 SN BKN002
BECMG 2204/2207 2000 -DZ
PROB40 2207/2211 BKN003
BECMG 2209/2212 26010KT 4000 BR BKN005
BECMG 2212/2215 9999 NSW BKN015
No reported NOTAMs for that airfield.



MET'MAP, your aeronautical weather chart ! - Copyright ORBIFLY December 2007 - Disclaimer

ORBIFLY MET'MAP TEAM :

Programming & Development : Alexandra Zaïnal
Concept & Development : Baudouin d'Aumeries
Co-Development & Prog : Marc-Olivier Méhu
Technical & hardware support : Manuel Goepfert

Contact : metmap@orbifly.com




SOURCES & CREDITS :

   NOAA